createdAt,value
2023-01-20T00:02:28.536Z,101504.53
2023-01-20T00:05:14.313Z,101510.84
2023-01-20T00:08:00.038Z,101507.50
2023-01-20T00:10:45.527Z,101505.81
2023-01-20T00:13:31.264Z,101513.72
2023-01-20T00:16:16.986Z,101510.41
2023-01-20T00:19:02.453Z,101513.97
2023-01-20T00:21:47.818Z,101521.72
2023-01-20T00:24:33.250Z,101526.16
2023-01-20T00:27:20.388Z,101522.78
2023-01-20T00:30:06.611Z,101526.31
2023-01-20T00:32:52.389Z,101522.06
2023-01-20T00:35:38.646Z,101530.63
2023-01-20T00:38:24.101Z,101527.19
2023-01-20T00:41:10.537Z,101522.84
2023-01-20T00:43:55.789Z,101521.91
2023-01-20T00:46:41.256Z,101514.91
2023-01-20T00:49:26.468Z,101514.03
2023-01-20T00:52:11.976Z,101517.31
2023-01-20T00:54:57.373Z,101519.00
2023-01-20T00:57:42.539Z,101516.44
2023-01-20T01:00:28.023Z,101519.00
2023-01-20T01:03:13.126Z,101519.09
2023-01-20T01:06:17.908Z,101512.19
2023-01-20T01:09:03.566Z,101517.31
2023-01-20T01:11:49.226Z,101521.66
2023-01-20T01:14:34.789Z,101513.88
2023-01-20T01:17:21.323Z,101524.91
2023-01-20T01:20:07.239Z,101515.44
2023-01-20T01:22:52.685Z,101519.69
2023-01-20T01:25:38.274Z,101515.28
2023-01-20T01:28:23.986Z,101527.13
2023-01-20T01:31:10.229Z,101524.41
2023-01-20T01:33:55.808Z,101522.44
2023-01-20T01:36:41.197Z,101519.63
2023-01-20T01:39:27.823Z,101520.16
2023-01-20T01:42:18.664Z,101524.19
2023-01-20T01:45:10.457Z,101524.81
2023-01-20T01:48:05.956Z,101524.47
2023-01-20T01:50:58.837Z,101520.75
2023-01-20T01:53:54.089Z,101529.94
2023-01-20T01:56:42.322Z,101529.75
2023-01-20T01:59:27.981Z,101532.13
2023-01-20T02:02:13.769Z,101531.13
2023-01-20T02:05:02.102Z,101532.91
2023-01-20T02:07:48.262Z,101532.06
2023-01-20T02:10:33.732Z,101540.41
2023-01-20T02:13:19.149Z,101544.47
2023-01-20T02:16:07.856Z,101548.63
2023-01-20T02:18:58.852Z,101546.22
2023-01-20T02:22:11.791Z,101543.69
2023-01-20T02:25:19.111Z,101553.72
2023-01-20T02:28:16.774Z,101562.09
2023-01-20T02:31:05.030Z,101557.69
2023-01-20T02:34:09.786Z,101557.50
2023-01-20T02:37:00.348Z,101557.31
2023-01-20T02:40:05.472Z,101559.19
2023-01-20T02:43:17.702Z,101564.41
2023-01-20T02:46:16.032Z,101572.75
2023-01-20T02:49:16.484Z,101573.53
2023-01-20T02:52:15.473Z,101570.88
2023-01-20T02:55:06.691Z,101579.28
2023-01-20T02:57:59.559Z,101576.72
2023-01-20T03:00:55.956Z,101572.41
2023-01-20T03:03:46.766Z,101573.78
2023-01-20T03:06:38.130Z,101568.66
2023-01-20T03:09:41.009Z,101582.25
2023-01-20T03:12:38.363Z,101577.84
2023-01-20T03:15:37.989Z,101580.41
2023-01-20T03:18:23.833Z,101578.72
2023-01-20T03:21:10.500Z,101599.97
2023-01-20T03:24:01.598Z,101599.97
2023-01-20T03:26:47.274Z,101598.13
2023-01-20T03:29:32.839Z,101601.38
2023-01-20T03:32:22.763Z,101599.69
2023-01-20T03:35:08.972Z,101599.69
2023-01-20T03:37:54.284Z,101596.34
2023-01-20T03:40:53.729Z,101596.63
2023-01-20T03:44:08.585Z,101603.31
2023-01-20T03:47:31.601Z,101598.81
2023-01-20T03:50:45.023Z,101594.88
2023-01-20T03:53:45.580Z,101597.06
2023-01-20T03:56:47.141Z,101591.75
2023-01-20T03:59:39.064Z,101592.53
2023-01-20T04:02:28.206Z,101591.34
2023-01-20T04:05:14.872Z,101591.16
2023-01-20T04:08:03.901Z,101592.94
2023-01-20T04:10:51.822Z,101594.44
2023-01-20T04:13:37.496Z,101601.13
2023-01-20T04:16:25.450Z,101602.00
2023-01-20T04:19:10.828Z,101595.22
2023-01-20T04:22:03.593Z,101598.75
2023-01-20T04:25:08.362Z,101599.56
2023-01-20T04:27:54.052Z,101603.66
2023-01-20T04:30:39.475Z,101600.34
2023-01-20T04:33:25.002Z,101594.03
2023-01-20T04:36:10.759Z,101596.47
2023-01-20T04:38:56.366Z,101596.28
2023-01-20T04:41:41.640Z,101589.44
2023-01-20T04:44:27.033Z,101602.13
2023-01-20T04:47:12.393Z,101606.41
2023-01-20T04:49:57.609Z,101603.00
2023-01-20T04:52:43.919Z,101601.78
2023-01-20T04:55:29.447Z,101598.66
2023-01-20T04:58:14.869Z,101598.66
2023-01-20T05:01:02.627Z,101592.47
2023-01-20T05:03:48.031Z,101595.81
2023-01-20T05:06:33.657Z,101599.38
2023-01-20T05:09:19.349Z,101596.81
2023-01-20T05:12:05.554Z,101597.09
2023-01-20T05:14:50.950Z,101591.84
2023-01-20T05:17:36.296Z,101596.06
2023-01-20T05:20:21.775Z,101597.13
2023-01-20T05:23:07.180Z,101606.81
2023-01-20T05:25:53.864Z,101607.88
2023-01-20T05:28:39.072Z,101618.25
2023-01-20T05:31:24.465Z,101613.81
2023-01-20T05:34:11.273Z,101604.78
2023-01-20T05:36:56.493Z,101611.03
2023-01-20T05:39:41.833Z,101612.25
2023-01-20T05:42:27.172Z,101615.56
2023-01-20T05:45:12.445Z,101615.25
2023-01-20T05:47:59.705Z,101614.53
2023-01-20T05:50:45.147Z,101614.78
2023-01-20T05:53:30.721Z,101618.72
2023-01-20T05:56:16.342Z,101613.50
2023-01-20T05:59:02.162Z,101620.72
2023-01-20T06:01:47.842Z,101616.44
2023-01-20T06:04:33.110Z,101621.78
2023-01-20T06:07:18.414Z,101618.81
2023-01-20T06:10:04.104Z,101616.94
2023-01-20T06:12:55.425Z,101620.72
2023-01-20T06:15:41.036Z,101623.00
2023-01-20T06:18:26.467Z,101632.19
2023-01-20T06:21:12.429Z,101630.25
2023-01-20T06:23:58.067Z,101638.47
2023-01-20T06:26:43.500Z,101631.53
2023-01-20T06:29:28.803Z,101640.72
2023-01-20T06:32:14.223Z,101643.81
2023-01-20T06:34:59.511Z,101641.59
2023-01-20T06:37:44.844Z,101642.41
2023-01-20T06:40:30.264Z,101638.41
2023-01-20T06:43:15.552Z,101638.06
2023-01-20T06:46:02.684Z,101643.81
2023-01-20T06:48:49.867Z,101641.50
2023-01-20T06:51:35.487Z,101644.16
2023-01-20T06:54:21.120Z,101642.03
2023-01-20T06:57:06.621Z,101637.88
2023-01-20T06:59:52.033Z,101632.75
2023-01-20T07:02:37.380Z,101639.63
2023-01-20T07:05:22.727Z,101640.16
2023-01-20T07:08:07.994Z,101640.91
2023-01-20T07:10:53.288Z,101641.00
2023-01-20T07:13:38.678Z,101648.00
2023-01-20T07:16:24.745Z,101652.47
2023-01-20T07:19:11.425Z,101649.38
2023-01-20T07:21:56.931Z,101650.66
2023-01-20T07:24:42.094Z,101654.19
2023-01-20T07:27:27.402Z,101651.72
2023-01-20T07:30:12.917Z,101663.09
2023-01-20T07:32:58.542Z,101658.22
2023-01-20T07:35:44.123Z,101662.44
2023-01-20T07:38:30.121Z,101664.72
2023-01-20T07:41:18.203Z,101663.03
2023-01-20T07:44:03.665Z,101666.72
2023-01-20T07:46:51.666Z,101668.78
2023-01-20T07:49:37.041Z,101671.75
2023-01-20T07:52:22.453Z,101666.47
2023-01-20T07:55:08.051Z,101665.63
2023-01-20T07:57:53.707Z,101669.72
2023-01-20T08:00:38.951Z,101675.00
2023-01-20T08:03:27.370Z,101671.31
2023-01-20T08:06:16.130Z,101681.31
2023-01-20T08:09:02.867Z,101675.34
2023-01-20T08:11:48.341Z,101674.41
2023-01-20T08:14:34.427Z,101674.25
2023-01-20T08:17:21.686Z,101671.47
2023-01-20T08:20:08.185Z,101676.38
2023-01-20T08:22:53.591Z,101678.72
2023-01-20T08:25:38.882Z,101683.84
2023-01-20T08:28:24.357Z,101687.88
2023-01-20T08:31:16.357Z,101694.81
2023-01-20T08:34:02.981Z,101703.09
2023-01-20T08:36:50.169Z,101695.09
2023-01-20T08:39:35.476Z,101701.47
2023-01-20T08:42:20.826Z,101702.34
2023-01-20T08:45:07.939Z,101694.88
2023-01-20T08:47:53.684Z,101696.13
2023-01-20T08:50:39.409Z,101696.91
2023-01-20T08:53:25.877Z,101703.06
2023-01-20T08:56:13.220Z,101702.59
2023-01-20T08:58:59.023Z,101702.75
2023-01-20T09:01:45.330Z,101706.75
2023-01-20T09:04:31.119Z,101722.69
2023-01-20T09:07:18.313Z,101724.19
2023-01-20T09:10:04.924Z,101719.09
2023-01-20T09:12:50.531Z,101721.53
2023-01-20T09:15:35.868Z,101719.31
2023-01-20T09:18:21.295Z,101726.44
2023-01-20T09:21:07.137Z,101736.09
2023-01-20T09:23:52.488Z,101739.91
2023-01-20T09:26:40.723Z,101737.22
2023-01-20T09:29:26.258Z,101732.38
2023-01-20T09:32:13.312Z,101745.88
2023-01-20T09:34:58.990Z,101745.34
2023-01-20T09:38:02.732Z,101746.34
2023-01-20T09:41:37.526Z,101744.34
2023-01-20T09:44:42.284Z,101749.44
2023-01-20T09:47:31.488Z,101741.78
2023-01-20T09:50:41.800Z,101746.44
2023-01-20T09:53:48.763Z,101744.69
2023-01-20T09:56:41.438Z,101753.28
2023-01-20T09:59:41.296Z,101767.91
2023-01-20T10:02:33.879Z,101771.44
2023-01-20T10:05:33.005Z,101774.72
2023-01-20T10:08:30.119Z,101776.06
2023-01-20T10:11:19.750Z,101776.88
2023-01-20T10:14:23.757Z,101788.72
2023-01-20T10:17:27.966Z,101786.72
2023-01-20T10:20:21.981Z,101791.94
2023-01-20T10:23:26.885Z,101786.72
2023-01-20T10:26:18.854Z,101789.22
2023-01-20T10:29:13.636Z,101787.81
2023-01-20T10:32:01.204Z,101790.41
2023-01-20T10:34:48.460Z,101784.75
2023-01-20T10:37:36.213Z,101791.78
2023-01-20T10:40:42.216Z,101799.09
2023-01-20T10:43:27.892Z,101801.34
2023-01-20T10:46:41.150Z,101811.06
2023-01-20T10:49:57.588Z,101814.47
2023-01-20T10:52:55.652Z,101820.25
2023-01-20T10:55:47.063Z,101827.47
2023-01-20T10:58:35.835Z,101822.19
2023-01-20T11:01:21.680Z,101830.13
2023-01-20T11:04:18.438Z,101828.13
2023-01-20T11:07:08.459Z,101826.94
2023-01-20T11:09:54.530Z,101822.94
2023-01-20T11:12:42.980Z,101824.19
2023-01-20T11:15:34.368Z,101834.34
2023-01-20T11:18:23.032Z,101833.13
2023-01-20T11:21:24.272Z,101835.06
2023-01-20T11:24:43.357Z,101834.22
2023-01-20T11:27:35.665Z,101836.84
2023-01-20T11:30:27.515Z,101837.00
2023-01-20T11:33:22.852Z,101826.41
2023-01-20T11:36:23.928Z,101819.84
2023-01-20T11:39:26.512Z,101814.31
2023-01-20T11:42:38.364Z,101810.72
2023-01-20T11:45:26.540Z,101804.75
2023-01-20T11:48:16.438Z,101799.34
2023-01-20T11:51:03.272Z,101791.16
2023-01-20T11:53:49.024Z,101782.28
2023-01-20T11:56:45.871Z,101777.25
2023-01-20T11:59:33.225Z,101761.38
2023-01-20T12:02:23.631Z,101757.34
2023-01-20T12:05:27.128Z,101764.69
2023-01-20T12:08:21.470Z,101759.25
2023-01-20T12:11:08.382Z,101749.34
2023-01-20T12:14:23.559Z,101750.41
2023-01-20T12:17:08.989Z,101740.69
2023-01-20T12:20:12.086Z,101739.19
2023-01-20T12:23:21.487Z,101728.50
2023-01-20T12:26:10.026Z,101725.31
2023-01-20T12:29:04.718Z,101725.69
2023-01-20T12:31:50.663Z,101729.28
2023-01-20T12:34:35.981Z,101721.72
2023-01-20T12:37:46.823Z,101729.00
2023-01-20T12:40:35.144Z,101718.91
2023-01-20T12:43:48.397Z,101722.63
2023-01-20T12:47:00.587Z,101720.94
2023-01-20T12:50:09.772Z,101722.81
2023-01-20T12:53:15.984Z,101731.66
2023-01-20T12:56:08.708Z,101726.75
2023-01-20T12:59:08.137Z,101726.50
2023-01-20T13:02:05.796Z,101734.53
2023-01-20T13:05:06.944Z,101739.91
2023-01-20T13:08:01.992Z,101729.13
2023-01-20T13:10:56.404Z,101732.06
2023-01-20T13:14:07.952Z,101739.31
2023-01-20T13:17:21.574Z,101733.41
2023-01-20T13:20:21.039Z,101729.63
2023-01-20T13:23:07.349Z,101723.97
2023-01-20T13:25:53.805Z,101719.81
2023-01-20T13:28:51.459Z,101716.53
2023-01-20T13:31:37.023Z,101723.53
2023-01-20T13:34:32.162Z,101732.28
2023-01-20T13:37:24.699Z,101744.38
2023-01-20T13:40:38.240Z,101738.25
2023-01-20T13:43:24.052Z,101741.75
2023-01-20T13:46:09.384Z,101754.59
2023-01-20T13:49:20.646Z,101753.53
2023-01-20T13:52:06.133Z,101755.13
2023-01-20T13:54:51.504Z,101761.03
2023-01-20T13:57:37.326Z,101766.06
2023-01-20T14:00:23.114Z,101772.91
2023-01-20T14:03:24.696Z,101765.09
2023-01-20T14:06:11.427Z,101771.19
2023-01-20T14:08:56.981Z,101778.03
2023-01-20T14:11:50.082Z,101776.19
2023-01-20T14:14:42.189Z,101781.56
2023-01-20T14:17:27.751Z,101786.72
2023-01-20T14:20:23.621Z,101787.59
2023-01-20T14:23:34.013Z,101788.53
2023-01-20T14:26:29.141Z,101791.47
2023-01-20T14:29:20.253Z,101793.41
2023-01-20T14:32:21.960Z,101794.34
2023-01-20T14:35:24.350Z,101794.53
2023-01-20T14:38:17.527Z,101799.00
2023-01-20T14:41:02.928Z,101795.72
2023-01-20T14:43:48.257Z,101802.66
2023-01-20T14:46:36.308Z,101812.94
2023-01-20T14:49:26.159Z,101811.97
2023-01-20T14:52:31.270Z,101818.91
2023-01-20T14:55:31.096Z,101814.56
2023-01-20T14:58:18.405Z,101818.75
2023-01-20T15:01:06.390Z,101819.72
2023-01-20T15:04:00.935Z,101820.81
2023-01-20T15:06:56.058Z,101831.38
2023-01-20T15:09:56.634Z,101834.16
2023-01-20T15:12:48.363Z,101834.22
2023-01-20T15:15:33.742Z,101836.38
2023-01-20T15:18:19.675Z,101837.81
2023-01-20T15:21:20.701Z,101845.19
2023-01-20T15:24:15.355Z,101842.09
2023-01-20T15:27:02.714Z,101843.81
2023-01-20T15:30:15.837Z,101847.25
2023-01-20T15:33:01.806Z,101850.13
2023-01-20T15:35:52.851Z,101857.31
2023-01-20T15:38:38.582Z,101866.19
2023-01-20T15:41:24.482Z,101883.69
2023-01-20T15:44:09.837Z,101873.78
2023-01-20T15:46:57.685Z,101878.34
2023-01-20T15:49:43.442Z,101886.44
2023-01-20T15:52:28.868Z,101890.28
2023-01-20T15:55:16.958Z,101900.00
2023-01-20T15:58:03.079Z,101902.03
2023-01-20T16:00:48.609Z,101905.84
2023-01-20T16:03:35.593Z,101911.00
2023-01-20T16:06:25.181Z,101919.50
2023-01-20T16:09:25.897Z,101917.50
2023-01-20T16:12:16.483Z,101919.66
2023-01-20T16:15:02.218Z,101933.69
2023-01-20T16:17:47.859Z,101938.34
2023-01-20T16:20:34.931Z,101941.03
2023-01-20T16:23:20.715Z,101937.63
2023-01-20T16:26:22.564Z,101951.84
2023-01-20T16:29:09.528Z,101955.44
2023-01-20T16:31:54.928Z,101964.16
2023-01-20T16:34:40.249Z,101966.69
2023-01-20T16:37:25.923Z,101972.13
2023-01-20T16:40:17.913Z,101972.56
2023-01-20T16:43:03.529Z,101984.00
2023-01-20T16:45:54.621Z,101992.59
2023-01-20T16:48:40.605Z,101984.44
2023-01-20T16:51:28.252Z,101994.63
2023-01-20T16:54:13.630Z,101999.94
2023-01-20T16:56:59.056Z,102000.28
2023-01-20T16:59:44.580Z,102013.06
2023-01-20T17:02:30.411Z,102011.63
2023-01-20T17:05:15.919Z,102023.25
2023-01-20T17:08:02.504Z,102013.94
2023-01-20T17:10:48.256Z,102019.78
2023-01-20T17:13:33.674Z,102018.78
2023-01-20T17:16:20.270Z,102023.31
2023-01-20T17:19:06.170Z,102031.47
2023-01-20T17:21:51.731Z,102027.38
2023-01-20T17:24:39.324Z,102031.09
2023-01-20T17:27:25.128Z,102035.25
2023-01-20T17:30:11.109Z,102037.50
2023-01-20T17:32:56.706Z,102048.06
2023-01-20T17:35:43.192Z,102060.38
2023-01-20T17:38:30.246Z,102063.84
2023-01-20T17:41:15.791Z,102069.31
2023-01-20T17:44:01.772Z,102072.63
2023-01-20T17:46:49.169Z,102068.72
2023-01-20T17:49:34.781Z,102071.91
2023-01-20T17:52:22.306Z,102086.88
2023-01-20T17:55:08.009Z,102087.38
2023-01-20T17:57:53.635Z,102084.81
2023-01-20T18:00:39.609Z,102089.97
2023-01-20T18:03:24.910Z,102098.63
2023-01-20T18:06:12.517Z,102102.09
2023-01-20T18:09:01.312Z,102112.38
2023-01-20T18:11:46.912Z,102103.59
2023-01-20T18:14:32.353Z,102108.34
2023-01-20T18:17:17.700Z,102106.81
2023-01-20T18:20:03.278Z,102112.28
2023-01-20T18:22:50.360Z,102119.81
2023-01-20T18:25:36.006Z,102128.38
2023-01-20T18:28:21.250Z,102121.97
2023-01-20T18:31:12.110Z,102126.72
2023-01-20T18:34:00.150Z,102132.56
2023-01-20T18:36:46.409Z,102131.97
2023-01-20T18:39:32.018Z,102140.25
2023-01-20T18:42:17.613Z,102135.63
2023-01-20T18:45:03.077Z,102140.97
2023-01-20T18:47:48.892Z,102141.78
2023-01-20T18:50:34.873Z,102144.94
2023-01-20T18:53:20.442Z,102146.59
2023-01-20T18:56:08.765Z,102152.72
2023-01-20T18:58:55.139Z,102150.09
2023-01-20T19:01:41.591Z,102160.22
2023-01-20T19:04:26.954Z,102162.91
2023-01-20T19:07:12.351Z,102163.78
2023-01-20T19:09:57.802Z,102173.47
2023-01-20T19:12:43.112Z,102177.69
2023-01-20T19:15:28.831Z,102171.88
2023-01-20T19:18:13.972Z,102174.03
2023-01-20T19:21:15.061Z,102187.47
2023-01-20T19:24:05.926Z,102182.44
2023-01-20T19:26:51.431Z,102191.13
2023-01-20T19:29:36.862Z,102193.00
2023-01-20T19:32:22.314Z,102197.25
2023-01-20T19:35:08.673Z,102214.09
2023-01-20T19:37:54.521Z,102211.72
2023-01-20T19:40:40.080Z,102217.56
2023-01-20T19:43:25.309Z,102222.81
2023-01-20T19:46:13.345Z,102228.03
2023-01-20T19:48:59.380Z,102229.00
2023-01-20T19:51:44.790Z,102217.47
2023-01-20T19:54:31.979Z,102222.03
2023-01-20T19:57:17.557Z,102232.69
2023-01-20T20:00:04.917Z,102240.38
2023-01-20T20:02:56.879Z,102244.69
2023-01-20T20:05:44.080Z,102244.47
2023-01-20T20:08:29.447Z,102245.25
2023-01-20T20:11:14.921Z,102246.97
2023-01-20T20:14:03.088Z,102255.34
2023-01-20T20:16:49.380Z,102261.56
2023-01-20T20:19:35.101Z,102267.31
2023-01-20T20:22:20.821Z,102265.84
2023-01-20T20:25:09.863Z,102269.47
2023-01-20T20:27:57.765Z,102271.25
2023-01-20T20:30:43.301Z,102274.44
2023-01-20T20:33:28.801Z,102278.97
2023-01-20T20:36:15.242Z,102285.13
2023-01-20T20:39:02.707Z,102293.09
2023-01-20T20:41:48.372Z,102302.00
2023-01-20T20:44:33.963Z,102291.53
2023-01-20T20:47:20.324Z,102296.28
2023-01-20T20:50:06.340Z,102308.44
2023-01-20T20:52:52.795Z,102305.94
2023-01-20T20:55:42.211Z,102316.19
2023-01-20T20:58:27.535Z,102321.84
2023-01-20T21:01:15.445Z,102328.59
2023-01-20T21:04:03.154Z,102330.66
2023-01-20T21:06:48.495Z,102335.38
2023-01-20T21:09:34.977Z,102336.53
2023-01-20T21:12:20.427Z,102352.44
2023-01-20T21:15:06.565Z,102342.53
2023-01-20T21:17:52.062Z,102340.50
2023-01-20T21:20:37.341Z,102346.22
2023-01-20T21:23:22.846Z,102345.25
2023-01-20T21:26:12.604Z,102345.44
2023-01-20T21:29:02.179Z,102352.28
2023-01-20T21:31:48.072Z,102359.22
2023-01-20T21:34:33.894Z,102362.22
2023-01-20T21:37:20.652Z,102362.16
2023-01-20T21:40:06.626Z,102363.38
2023-01-20T21:42:54.518Z,102359.47
2023-01-20T21:45:39.933Z,102366.91
2023-01-20T21:48:43.781Z,102365.75
2023-01-20T21:51:48.489Z,102372.09
2023-01-20T21:54:34.735Z,102375.22
2023-01-20T21:57:21.271Z,102376.59
2023-01-20T22:00:08.758Z,102374.44
2023-01-20T22:02:57.408Z,102371.16
2023-01-20T22:05:42.798Z,102371.31
2023-01-20T22:08:28.205Z,102380.84
2023-01-20T22:11:13.570Z,102374.91
2023-01-20T22:13:59.181Z,102373.34
2023-01-20T22:16:44.790Z,102372.78
2023-01-20T22:19:30.482Z,102378.00
2023-01-20T22:22:16.006Z,102368.50
2023-01-20T22:25:01.391Z,102368.66
2023-01-20T22:27:48.288Z,102366.41
2023-01-20T22:30:34.033Z,102371.81
2023-01-20T22:33:19.232Z,102375.50
2023-01-20T22:36:05.196Z,102370.50
2023-01-20T22:38:52.208Z,102365.34
2023-01-20T22:41:37.696Z,102376.66
2023-01-20T22:44:22.931Z,102381.19
2023-01-20T22:47:10.952Z,102384.16
2023-01-20T22:49:56.976Z,102386.75
2023-01-20T22:52:42.456Z,102384.94
2023-01-20T22:55:27.695Z,102393.03
2023-01-20T22:58:13.012Z,102392.22
2023-01-20T23:00:59.073Z,102393.28
2023-01-20T23:03:45.618Z,102393.59
2023-01-20T23:06:33.192Z,102399.81
2023-01-20T23:09:19.058Z,102397.53
2023-01-20T23:12:04.996Z,102389.78
2023-01-20T23:14:59.675Z,102385.66
2023-01-20T23:17:46.484Z,102395.13
2023-01-20T23:20:31.838Z,102391.81
2023-01-20T23:23:17.564Z,102395.34
2023-01-20T23:26:05.577Z,102402.38
2023-01-20T23:28:53.700Z,102404.94
2023-01-20T23:31:39.282Z,102400.44
2023-01-20T23:34:24.622Z,102407.47
2023-01-20T23:37:10.444Z,102404.06
2023-01-20T23:39:55.854Z,102405.81
2023-01-20T23:42:41.577Z,102403.31
2023-01-20T23:45:28.856Z,102400.84
2023-01-20T23:48:14.471Z,102405.25
2023-01-20T23:51:00.902Z,102407.19
2023-01-20T23:53:46.547Z,102407.19
2023-01-20T23:56:32.056Z,102416.88
2023-01-20T23:59:17.414Z,102412.00
